Rocky Comfort, Missouri
Current Conditions -  °F | °C
As of 4:55 AM on Wednesday 22 Oct 2014 (Local Time) from KHFJ Reporting Station
Clear Clear  
Wind Chill: 10°   Ceiling: Unl
Heat Index: 10°   Visibility: 10mi
Dew Point:   Wind: 10mph
Humidity: 87%   Direction: 120°ESE
Pressure: 30.15"   Gusts: NA
Location:  36.75°N, 94.09°W
Report Text: KHFJ 220955Z AUTO 12009KT 10SM CLR 10/08 A3015 RMK AO2
Loading
Personal Weather Stations






























Interactive Weather Map
Tropical Storm Tracking
New forecast layout! Learn more

10-Day Weather Forecast

Advertisements
Track Severe Weather on mobile